M I D A S
Marine Information and Data Acquisition System
Tripno 1721 of the Zeeleeuw from 2009-01-16 07:30:54 to 2009-01-16 12:52:50
Back to CruiseResearch ActivitiesStationsMapUnderway DataData graphs

EquipmentUnitsComment
TimeDGPSUTC
LatitudeDGPSDM.mWGS84
LongitudeDGPSDM.mWGS84
TemperatureSBE03/SBE38deg celciusITS90
ConductivitySBE21S/mITS90
SalinitySBE21 Practical Salinity Units
ChlorophylAChelsea fluorimeterg/lCalibrated in Aceton
Missing or incorrect values are displayed as -999
Sea surface data collected by the RV Zeeleeuw from 2009-01-16 07:31:05 to 2009-01-16 13:02:10
Time Latitude Longitude Temperature Conductivity Salinity ChlorophylA
2009-01-16 07:32:10 51°13.675 2°55.924 -999 0.105603 0.641207 -1.209513
2009-01-16 07:33:10 51°13.688 2°55.854 -999 0.1055 0.640786 -1.209513
2009-01-16 07:34:10 51°13.689 2°55.784 -999 0.1055 0.640993 -1.209513
2009-01-16 07:35:10 51°13.717 2°55.784 -999 0.105397 0.640624 -1.209513
2009-01-16 07:36:10 51°13.765 2°55.725 -999 0.105397 0.640727 -1.209513
2009-01-16 07:37:10 51°13.836 2°55.629 -999 0.105294 0.640307 -1.209513
2009-01-16 07:38:10 51°13.929 2°55.554 -999 0.105294 0.640461 -1.209513
2009-01-16 07:39:10 51°14.03 2°55.476 -999 0.105294 0.640565 -1.209513
2009-01-16 07:40:10 51°14.134 2°55.397 -999 0.105191 0.640027 -1.209513
2009-01-16 07:41:10 51°14.234 2°55.298 -999 0.105191 0.640157 -1.174688
2009-01-16 07:42:10 51°14.323 2°55.152 -999 0.105191 0.640234 -1.209513
2009-01-16 07:43:10 51°14.423 2°54.969 -999 0.105191 0.640298 -1.209513
2009-01-16 07:44:10 51°14.564 2°54.825 -999 0.105088 0.639774 -1.209513
2009-01-16 07:45:10 51°14.73 2°54.671 -999 0.105088 0.639851 -1.209513
2009-01-16 07:46:10 51°14.904 2°54.494 -999 0.105088 0.639981 -1.209513
2009-01-16 07:47:10 51°15.081 2°54.315 -999 0.105088 0.640148 -1.209513
2009-01-16 07:48:10 51°15.261 2°54.142 -999 0.104985 0.639624 -1.209513
2009-01-16 07:49:10 51°15.441 2°53.982 -999 0.104985 0.63974 -1.209513
2009-01-16 07:50:10 51°15.616 2°53.811 -999 0.104985 0.639908 -1.209513
2009-01-16 07:51:10 51°15.793 2°53.645 -999 0.104985 0.640011 -1.209513
2009-01-16 07:52:10 51°15.972 2°53.48 -999 0.104882 0.63946 -1.209513
2009-01-16 07:53:10 51°16.151 2°53.315 -999 0.104882 0.639589 -1.209513
2009-01-16 07:54:10 51°16.332 2°53.15 -999 0.104882 0.63968 -1.209513
2009-01-16 07:55:10 51°16.519 2°53.003 -999 0.104882 0.639783 -1.209513
2009-01-16 07:56:10 51°16.709 2°52.867 -999 0.10478 0.639232 -1.209513
2009-01-16 07:57:10 51°16.895 2°52.725 -999 0.10478 0.639335 -1.209513
2009-01-16 07:58:10 51°17.085 2°52.597 -999 0.10478 0.639413 -1.244337
2009-01-16 07:59:10 51°17.286 2°52.53 -999 0.104677 0.638874 -1.209513
2009-01-16 08:00:10 51°17.491 2°52.481 -999 0.104677 0.638965 -1.244337
2009-01-16 08:01:10 51°17.696 2°52.452 -999 0.104677 0.639068 -1.244337
2009-01-16 08:02:10 51°17.901 2°52.438 -999 0.104677 0.639172 -1.279161
2009-01-16 08:03:10 51°18.106 2°52.431 -999 0.104574 0.638594 -1.279161
2009-01-16 08:04:10 51°18.304 2°52.503 -999 0.104574 0.638697 -1.279161
2009-01-16 08:05:10 51°18.502 2°52.58 -999 0.104574 0.638814 -1.279161
2009-01-16 08:06:10 51°18.699 2°52.653 -999 0.104471 0.638249 -1.279161
2009-01-16 08:07:10 51°18.805 2°52.733 -999 0.104471 0.638365 -1.279161
2009-01-16 08:08:10 51°18.843 2°52.796 -999 0.104471 0.638481 -1.279161
2009-01-16 08:09:10 51°18.867 2°52.877 -999 0.104471 0.638624 -1.279161
2009-01-16 08:10:10 51°18.876 2°52.977 -999 0.104368 0.63811 -1.279161
2009-01-16 08:11:10 51°18.867 2°53.063 -999 0.104368 0.638252 -1.279161
2009-01-16 08:12:10 51°18.868 2°53.149 -999 0.104368 0.638447 -1.279161
2009-01-16 08:13:10 51°18.879 2°53.235 -999 0.104368 0.638602 -1.279161
2009-01-16 08:14:10 51°18.908 2°53.312 -999 0.104265 0.638127 -1.244337
2009-01-16 08:15:10 51°18.941 2°53.38 -999 0.104265 0.638269 -1.209513
2009-01-16 08:16:10 51°18.971 2°53.444 -999 0.104265 0.638425 -1.209513
2009-01-16 08:17:10 51°19.002 2°53.506 -999 0.104162 0.637897 -1.209513
2009-01-16 08:18:10 51°19.034 2°53.566 -999 0.104162 0.638027 -1.209513
2009-01-16 08:19:10 51°19.067 2°53.626 -999 0.104162 0.638144 -1.209513
2009-01-16 08:20:10 51°19.098 2°53.687 -999 0.104059 0.637616 -1.209513
2009-01-16 08:21:10 51°19.132 2°53.746 -999 0.104059 0.63772 -1.209513
2009-01-16 08:22:10 51°19.165 2°53.805 -999 0.104059 0.637836 -0.93092
2009-01-16 08:23:10 51°19.196 2°53.864 -999 0.104059 0.638018 -1.035392
2009-01-16 08:24:10 51°19.229 2°53.921 -999 0.103956 0.637503 -1.000568
2009-01-16 08:25:10 51°19.26 2°53.978 -999 0.103956 0.637633 -1.000568
2009-01-16 08:26:10 51°19.292 2°54.033 -999 0.103956 0.637737 -1.000568
2009-01-16 08:27:10 51°19.322 2°54.087 -999 0.103853 0.637195 -1.000568
2009-01-16 08:28:10 51°19.352 2°54.14 -999 0.103853 0.637312 -1.000568
2009-01-16 08:29:10 51°19.383 2°54.193 -999 0.103853 0.637429 -1.000568
2009-01-16 08:30:10 51°19.414 2°54.245 -999 0.103853 0.637533 -1.000568
2009-01-16 08:31:10 51°19.443 2°54.297 -999 0.10375 0.636952 -1.000568
2009-01-16 08:32:10 51°19.474 2°54.348 -999 0.10375 0.637029 -1.000568
2009-01-16 08:33:10 51°19.506 2°54.403 -999 0.10375 0.637107 -1.000568
2009-01-16 08:34:10 51°19.538 2°54.46 -999 0.10375 0.637159 -1.000568
2009-01-16 08:35:10 51°19.57 2°54.519 -999 0.10375 0.637224 -1.000568
2009-01-16 08:36:10 51°19.604 2°54.577 -999 0.10375 0.637289 -1.000568
2009-01-16 08:37:10 51°19.636 2°54.634 -999 0.103648 0.636708 -1.000568
2009-01-16 08:38:10 51°19.667 2°54.692 -999 0.103648 0.636786 -1.000568
2009-01-16 08:39:10 51°19.698 2°54.75 -999 0.103648 0.636851 -1.000568
2009-01-16 08:40:10 51°19.73 2°54.805 -999 0.103648 0.636916 -1.000568
2009-01-16 08:41:10 51°19.76 2°54.861 -999 0.103648 0.636981 -1.000568
2009-01-16 08:42:10 51°19.791 2°54.917 -999 0.103648 0.637046 -1.000568
2009-01-16 08:43:10 51°19.822 2°54.973 -999 0.103648 0.637111 -1.000568
2009-01-16 08:44:10 51°19.853 2°55.029 -999 0.103545 0.636516 -1.000568
2009-01-16 08:45:10 51°19.883 2°55.086 -999 0.103545 0.636568 -1.000568
2009-01-16 08:46:10 51°19.914 2°55.142 -999 0.103545 0.636646 -1.000568
2009-01-16 08:47:10 51°19.944 2°55.198 -999 0.103545 0.636711 -1.035392
2009-01-16 08:48:10 51°19.975 2°55.254 -999 0.103545 0.636764 -1.000568
2009-01-16 08:49:10 51°20.005 2°55.31 -999 0.103545 0.636842 -1.035392
2009-01-16 08:50:10 51°20.034 2°55.366 -999 0.103545 0.636894 -1.000568
2009-01-16 08:51:10 51°20.057 2°55.423 -999 0.103545 0.636946 -1.000568
2009-01-16 08:52:10 51°20.068 2°55.481 -999 0.103442 0.636337 -1.000568
2009-01-16 08:53:10 51°20.057 2°55.533 -999 0.103442 0.636403 -1.000568
2009-01-16 08:54:10 51°20.044 2°55.549 -999 0.103442 0.636468 -1.000568
2009-01-16 08:55:10 51°20.042 2°55.552 -999 0.103442 0.636507 -1.035392
2009-01-16 08:56:10 51°20.045 2°55.548 -999 0.103442 0.636585 -1.000568
2009-01-16 08:57:10 51°20.048 2°55.546 -999 0.103442 0.636624 -1.000568
2009-01-16 08:58:10 51°20.008 2°55.561 -999 0.103442 0.636689 -1.000568
2009-01-16 08:59:10 51°19.926 2°55.471 -999 0.103442 0.63678 -1.000568
2009-01-16 09:00:10 51°19.783 2°55.302 -999 0.103442 0.636832 -1.035392
2009-01-16 09:01:10 51°19.634 2°55.071 -999 0.103339 0.636211 -1.000568
2009-01-16 09:02:10 51°19.487 2°54.83 -999 0.103339 0.63625 -1.000568
2009-01-16 09:03:10 51°19.353 2°54.569 -999 0.103339 0.636315 -1.035392
2009-01-16 09:04:10 51°19.224 2°54.304 -999 0.103339 0.63638 -1.000568
2009-01-16 09:05:10 51°19.092 2°54.044 -999 0.103339 0.636445 -1.000568
2009-01-16 09:06:10 51°18.962 2°53.781 -999 0.103339 0.636523 -1.000568
2009-01-16 09:07:10 51°18.83 2°53.524 -999 0.103339 0.636602 -1.000568
2009-01-16 09:08:10 51°18.698 2°53.265 -999 0.103339 0.636667 -1.000568
2009-01-16 09:09:10 51°18.565 2°53.007 -999 0.103339 0.636758 -1.035392
2009-01-16 09:10:10 51°18.431 2°52.749 -999 0.103236 0.636162 -1.000568
2009-01-16 09:11:10 51°18.3 2°52.491 -999 0.103236 0.636227 -1.035392
2009-01-16 09:12:10 51°18.171 2°52.23 -999 0.103236 0.636318 -1.000568
2009-01-16 09:13:10 51°18.042 2°51.969 -999 0.103236 0.636384 -1.000568
2009-01-16 09:14:10 51°17.915 2°51.707 -999 0.103236 0.636449 -1.035392
2009-01-16 09:15:10 51°17.794 2°51.437 -999 0.103236 0.636527 -1.000568
2009-01-16 09:16:10 51°17.672 2°51.166 -999 0.103236 0.636592 -1.000568
2009-01-16 09:17:10 51°17.548 2°50.897 -999 0.103236 0.636671 -1.000568
2009-01-16 09:18:10 51°17.424 2°50.631 -999 0.103236 0.636736 -1.035392
2009-01-16 09:19:10 51°17.298 2°50.366 -999 0.103133 0.636139 -1.000568
2009-01-16 09:20:10 51°17.17 2°50.103 -999 0.103133 0.636218 -1.000568
2009-01-16 09:21:10 51°17.042 2°49.841 -999 0.103133 0.636296 -1.035392
2009-01-16 09:22:10 51°16.888 2°49.625 -999 0.103133 0.636361 -1.035392
2009-01-16 09:23:10 51°16.723 2°49.425 -999 0.103133 0.636413 -1.035392
2009-01-16 09:24:10 51°16.558 2°49.218 -999 0.103133 0.636518 -1.035392
2009-01-16 09:25:10 51°16.398 2°49.015 -999 0.103133 0.63661 -1.035392
2009-01-16 09:26:10 51°16.318 2°48.934 -999 0.103133 0.636701 -1.035392
2009-01-16 09:27:10 51°16.284 2°48.891 -999 0.103133 0.63674 -1.035392
2009-01-16 09:28:10 51°16.248 2°48.849 -999 0.103133 0.636845 -1.035392
2009-01-16 09:29:10 51°16.182 2°48.799 -999 0.103133 0.636923 -1.035392
2009-01-16 09:30:10 51°16.126 2°48.736 -999 0.103133 0.636989 -1.035392
2009-01-16 09:31:10 51°16.086 2°48.659 -999 0.10303 0.636431 -1.035392
2009-01-16 09:32:10 51°16.054 2°48.579 -999 0.10303 0.636496 -1.035392
2009-01-16 09:33:10 51°16.034 2°48.495 -999 0.10303 0.636575 -1.035392
2009-01-16 09:34:10 51°16.017 2°48.42 -999 0.10303 0.63664 -1.035392
2009-01-16 09:35:10 51°16.002 2°48.35 -999 0.10303 0.636692 -1.035392
2009-01-16 09:36:10 51°15.99 2°48.282 -999 0.10303 0.636745 -1.035392
2009-01-16 09:37:10 51°15.973 2°48.209 -999 0.10303 0.636797 -1.035392
2009-01-16 09:38:10 51°15.951 2°48.131 -999 0.10303 0.63685 -1.035392
2009-01-16 09:39:10 51°15.929 2°48.052 -999 0.10303 0.636889 -1.035392
2009-01-16 09:40:10 51°15.91 2°47.975 -999 0.10303 0.636954 -1.035392
2009-01-16 09:41:10 51°15.894 2°47.9 -999 0.10303 0.63702 -1.035392
2009-01-16 09:42:10 51°15.878 2°47.826 -999 0.10303 0.637086 -1.035392
2009-01-16 09:43:10 51°15.86 2°47.751 -999 0.10303 0.637151 -1.035392
2009-01-16 09:44:10 51°15.843 2°47.675 -999 0.10303 0.63723 -1.035392
2009-01-16 09:45:10 51°15.826 2°47.597 -999 0.10303 0.637309 -1.035392
2009-01-16 09:46:10 51°15.809 2°47.52 -999 0.10303 0.637387 -1.035392
2009-01-16 09:47:10 51°15.792 2°47.444 -999 0.10303 0.637453 -1.035392
2009-01-16 09:48:10 51°15.777 2°47.366 -999 0.10303 0.637519 -1.035392
2009-01-16 09:49:10 51°15.762 2°47.291 -999 0.10303 0.637597 -1.035392
2009-01-16 09:50:10 51°15.746 2°47.217 -999 0.10303 0.637663 -1.035392
2009-01-16 09:51:10 51°15.729 2°47.141 -999 0.10303 0.637742 -1.035392
2009-01-16 09:52:10 51°15.714 2°47.065 -999 0.10303 0.637808 -1.035392
2009-01-16 09:53:10 51°15.7 2°46.99 -999 0.10303 0.637887 -1.035392
2009-01-16 09:54:10 51°15.684 2°46.915 -999 0.10303 0.637952 -1.035392
2009-01-16 09:55:10 51°15.669 2°46.839 -999 0.10303 0.638031 -1.035392
2009-01-16 09:56:10 51°15.655 2°46.764 -999 0.10303 0.638097 -1.035392
2009-01-16 09:57:10 51°15.64 2°46.689 -999 0.10303 0.638163 -1.035392
2009-01-16 09:58:10 51°15.625 2°46.613 -999 0.10303 0.638242 -1.035392
2009-01-16 09:59:10 51°15.612 2°46.539 -999 0.10303 0.638321 -1.035392
2009-01-16 10:00:10 51°15.599 2°46.465 -999 0.102927 0.637735 -1.035392
2009-01-16 10:01:10 51°15.585 2°46.391 -999 0.10303 0.638479 -1.035392
2009-01-16 10:02:10 51°15.573 2°46.317 -999 0.102927 0.63788 -1.035392
2009-01-16 10:03:10 51°15.563 2°46.242 -999 0.102927 0.637946 -1.035392
2009-01-16 10:04:10 51°15.553 2°46.166 -999 0.102927 0.638011 -1.035392
2009-01-16 10:05:10 51°15.54 2°46.09 -999 0.102927 0.638064 -1.035392
2009-01-16 10:06:10 51°15.526 2°46.014 -999 0.102927 0.638117 -1.035392
2009-01-16 10:07:10 51°15.511 2°45.94 -999 0.102927 0.63817 -1.035392
2009-01-16 10:08:10 51°15.496 2°45.866 -999 0.102927 0.638209 -1.035392
2009-01-16 10:09:10 51°15.481 2°45.793 -999 0.102927 0.638288 -1.035392
2009-01-16 10:10:10 51°15.467 2°45.719 -999 0.102927 0.638367 -1.035392
2009-01-16 10:11:10 51°15.455 2°45.645 -999 0.102927 0.638447 -1.035392
2009-01-16 10:12:10 51°15.442 2°45.569 -999 0.102927 0.638526 -1.035392
2009-01-16 10:13:10 51°15.428 2°45.494 -999 0.102927 0.638592 -1.035392
2009-01-16 10:14:10 51°15.413 2°45.418 -999 0.102927 0.638645 -1.035392
2009-01-16 10:15:10 51°15.401 2°45.337 -999 0.102927 0.638697 -1.035392
2009-01-16 10:16:10 51°15.396 2°45.251 -999 0.102927 0.638737 -1.035392
2009-01-16 10:17:10 51°15.408 2°45.167 -999 0.102927 0.638803 -1.035392
2009-01-16 10:18:10 51°15.433 2°45.091 -999 0.102927 0.638869 -1.035392
2009-01-16 10:19:10 51°15.483 2°45.042 -999 0.102927 0.638882 -1.035392
2009-01-16 10:20:10 51°15.515 2°45.049 -999 0.102927 0.638896 -1.070216
2009-01-16 10:21:10 51°15.524 2°45.109 -999 0.102927 0.638935 -1.070216
2009-01-16 10:22:10 51°15.506 2°45.156 -999 0.102927 0.639028 -1.070216
2009-01-16 10:23:10 51°15.495 2°45.168 -999 0.102927 0.639094 -1.070216
2009-01-16 10:24:10 51°15.492 2°45.164 -999 0.102927 0.639134 -1.035392
2009-01-16 10:25:10 51°15.492 2°45.151 -999 0.102927 0.639173 -1.035392
2009-01-16 10:26:10 51°15.491 2°45.144 -999 0.102927 0.6392 -1.070216
2009-01-16 10:27:10 51°15.433 2°45.183 -999 0.102927 0.639239 -1.070216
2009-01-16 10:28:10 51°15.304 2°45.31 -999 0.102927 0.639332 -1.035392
2009-01-16 10:29:10 51°15.166 2°45.455 -999 0.102927 0.639345 -1.070216
2009-01-16 10:30:10 51°15.028 2°45.603 -999 0.102927 0.639385 -1.070216
2009-01-16 10:31:10 51°14.891 2°45.75 -999 0.102927 0.639438 -1.070216
2009-01-16 10:32:10 51°14.754 2°45.894 -999 0.102927 0.639504 -1.070216
2009-01-16 10:33:10 51°14.618 2°46.032 -999 0.102927 0.639584 -1.035392
2009-01-16 10:34:10 51°14.475 2°46.172 -999 0.102927 0.63969 -1.035392
2009-01-16 10:35:10 51°14.332 2°46.313 -999 0.102927 0.639809 -1.035392
2009-01-16 10:36:10 51°14.19 2°46.455 -999 0.102927 0.639915 -1.035392
2009-01-16 10:37:10 51°14.071 2°46.584 -999 0.102927 0.640034 -1.070216
2009-01-16 10:38:10 51°14.028 2°46.657 -999 0.102927 0.640141 -1.035392
2009-01-16 10:39:10 51°14.038 2°46.731 -999 0.102927 0.64026 -1.035392
2009-01-16 10:40:10 51°14.053 2°46.814 -999 0.102927 0.640353 -1.070216
2009-01-16 10:41:10 51°14.055 2°46.891 -999 0.102927 0.640499 -1.070216
2009-01-16 10:42:10 51°14.059 2°46.975 -999 0.102927 0.640606 -1.070216
2009-01-16 10:43:10 51°14.061 2°47.059 -999 0.102927 0.640712 -1.070216
2009-01-16 10:44:10 51°14.065 2°47.142 -999 0.102927 0.640805 -1.070216
2009-01-16 10:45:10 51°14.069 2°47.223 -999 0.102927 0.640885 -1.070216
2009-01-16 10:46:10 51°14.081 2°47.301 -999 0.102927 0.640978 -1.070216
2009-01-16 10:47:10 51°14.096 2°47.378 -999 0.102927 0.641058 -1.070216
2009-01-16 10:48:10 51°14.108 2°47.456 -999 0.102824 0.640456 -1.070216
2009-01-16 10:49:10 51°14.116 2°47.534 -999 0.102824 0.640536 -1.070216
2009-01-16 10:50:10 51°14.123 2°47.615 -999 0.102824 0.640616 -1.070216
2009-01-16 10:51:10 51°14.131 2°47.697 -999 0.102824 0.640696 -1.070216
2009-01-16 10:52:10 51°14.146 2°47.778 -999 0.102824 0.640762 -1.070216
2009-01-16 10:53:10 51°14.172 2°47.851 -999 0.102824 0.640815 -1.070216
2009-01-16 10:54:10 51°14.197 2°47.925 -999 0.102824 0.640869 -1.070216
2009-01-16 10:55:10 51°14.222 2°47.999 -999 0.102824 0.640935 -1.070216
2009-01-16 10:56:10 51°14.246 2°48.074 -999 0.102824 0.640989 -1.070216
2009-01-16 10:57:10 51°14.267 2°48.151 -999 0.102824 0.641055 -1.070216
2009-01-16 10:58:10 51°14.283 2°48.228 -999 0.102824 0.641109 -1.070216
2009-01-16 10:59:10 51°14.306 2°48.305 -999 0.102824 0.641175 -1.070216
2009-01-16 11:00:10 51°14.329 2°48.381 -999 0.102824 0.641229 -1.070216
2009-01-16 11:01:10 51°14.36 2°48.451 -999 0.102824 0.641296 -1.070216
2009-01-16 11:02:10 51°14.393 2°48.519 -999 0.102824 0.641349 -1.070216
2009-01-16 11:03:11 51°14.429 2°48.586 -999 0.102824 0.641416 -1.070216
2009-01-16 11:04:10 51°14.46 2°48.655 -999 0.102824 0.641469 -1.070216
2009-01-16 11:05:10 51°14.483 2°48.73 -999 0.102824 0.641522 -1.070216
2009-01-16 11:06:10 51°14.511 2°48.802 -999 0.102824 0.641576 -1.070216
2009-01-16 11:07:10 51°14.544 2°48.87 -999 0.102824 0.641616 -1.070216
2009-01-16 11:08:10 51°14.573 2°48.941 -999 0.102824 0.641656 -1.070216
2009-01-16 11:09:10 51°14.594 2°49.015 -999 0.102824 0.64171 -1.070216
2009-01-16 11:10:11 51°14.615 2°49.092 -999 0.102824 0.641763 -1.070216
2009-01-16 11:11:10 51°14.638 2°49.164 -999 0.102824 0.641816 -1.070216
2009-01-16 11:12:10 51°14.665 2°49.236 -999 0.102824 0.641857 -1.070216
2009-01-16 11:13:10 51°14.696 2°49.305 -999 0.102824 0.641897 -1.070216
2009-01-16 11:14:10 51°14.729 2°49.372 -999 0.102824 0.641923 -1.070216
2009-01-16 11:15:10 51°14.755 2°49.446 -999 0.102824 0.64195 -1.070216
2009-01-16 11:16:10 51°14.76 2°49.528 -999 0.102824 0.64199 -1.070216
2009-01-16 11:17:10 51°14.758 2°49.612 -999 0.102824 0.642044 -1.070216
2009-01-16 11:18:10 51°14.749 2°49.691 -999 0.102824 0.642084 -1.070216
2009-01-16 11:19:10 51°14.721 2°49.752 -999 0.102722 0.641467 -1.070216
2009-01-16 11:20:10 51°14.687 2°49.789 -999 0.102722 0.641521 -1.070216
2009-01-16 11:21:10 51°14.668 2°49.801 -999 0.102722 0.641547 -1.070216
2009-01-16 11:22:10 51°14.657 2°49.799 -999 0.102722 0.641601 -1.070216
2009-01-16 11:23:10 51°14.644 2°49.8 -999 0.102722 0.641587 -1.070216
2009-01-16 11:24:10 51°14.579 2°49.79 -999 0.102722 0.641654 -1.070216
2009-01-16 11:25:10 51°14.52 2°49.726 -999 0.102722 0.641708 -1.070216
2009-01-16 11:26:10 51°14.486 2°49.64 -999 0.102722 0.641761 -1.070216
2009-01-16 11:27:10 51°14.462 2°49.56 -999 0.102722 0.641815 -1.070216
2009-01-16 11:28:10 51°14.444 2°49.487 -999 0.102722 0.641855 -1.070216
2009-01-16 11:29:10 51°14.424 2°49.412 -999 0.102722 0.641895 -1.070216
2009-01-16 11:30:10 51°14.401 2°49.33 -999 0.102722 0.641949 -1.070216
2009-01-16 11:31:10 51°14.379 2°49.251 -999 0.102722 0.642002 -1.070216
2009-01-16 11:32:10 51°14.359 2°49.173 -999 0.102722 0.642069 -1.070216
2009-01-16 11:33:10 51°14.339 2°49.096 -999 0.102722 0.642136 -1.070216
2009-01-16 11:34:10 51°14.317 2°49.021 -999 0.102722 0.64219 -1.070216
2009-01-16 11:35:11 51°14.294 2°48.943 -999 0.102722 0.642244 -1.070216
2009-01-16 11:36:10 51°14.274 2°48.867 -999 0.102722 0.642311 -1.070216
2009-01-16 11:37:10 51°14.256 2°48.788 -999 0.102722 0.642378 -1.070216
2009-01-16 11:38:10 51°14.237 2°48.71 -999 0.102722 0.642431 -1.070216
2009-01-16 11:39:10 51°14.218 2°48.631 -999 0.102722 0.642485 -1.070216
2009-01-16 11:40:10 51°14.198 2°48.552 -999 0.102722 0.642539 -1.070216
2009-01-16 11:41:10 51°14.178 2°48.474 -999 0.102722 0.642579 -1.070216
2009-01-16 11:42:10 51°14.158 2°48.395 -999 0.102722 0.642619 -1.070216
2009-01-16 11:43:10 51°14.14 2°48.314 -999 0.102722 0.64266 -1.070216
2009-01-16 11:44:10 51°14.122 2°48.233 -999 0.102619 0.642028 -1.070216
2009-01-16 11:45:10 51°14.105 2°48.149 -999 0.102722 0.642754 -1.070216
2009-01-16 11:46:10 51°14.095 2°48.064 -999 0.102619 0.642136 -1.070216
2009-01-16 11:47:10 51°14.09 2°47.978 -999 0.102619 0.642189 -1.070216
2009-01-16 11:48:10 51°14.086 2°47.893 -999 0.102619 0.642256 -1.070216
2009-01-16 11:49:11 51°14.083 2°47.807 -999 0.102619 0.64231 -1.070216
2009-01-16 11:50:10 51°14.08 2°47.724 -999 0.102619 0.642364 -0.896096
2009-01-16 11:51:10 51°14.076 2°47.639 -999 0.102619 0.642404 -0.896096
2009-01-16 11:52:10 51°14.072 2°47.556 -999 0.102619 0.642458 -0.896096
2009-01-16 11:53:10 51°14.07 2°47.475 -999 0.102619 0.642512 -0.896096
2009-01-16 11:54:10 51°14.068 2°47.394 -999 0.102619 0.642565 -0.896096
2009-01-16 11:55:11 51°14.067 2°47.311 -999 0.102619 0.642606 -0.896096
2009-01-16 11:56:10 51°14.068 2°47.23 -999 0.102619 0.642659 -0.896096
2009-01-16 11:57:10 51°14.07 2°47.147 -999 0.102619 0.642713 -0.896096
2009-01-16 11:58:11 51°14.072 2°47.064 -999 0.102619 0.642767 -0.896096
2009-01-16 11:59:10 51°14.073 2°46.984 -999 0.102619 0.642807 -0.896096
2009-01-16 12:00:10 51°14.074 2°46.901 -999 0.102619 0.642848 -0.93092
2009-01-16 12:01:10 51°14.075 2°46.818 -999 0.102619 0.642902 -0.896096
2009-01-16 12:02:11 51°14.077 2°46.733 -999 0.102619 0.642942 -0.896096
2009-01-16 12:03:10 51°14.08 2°46.652 -999 0.102619 0.642982 -0.896096
2009-01-16 12:04:10 51°14.083 2°46.571 -999 0.102619 0.643036 -0.896096
2009-01-16 12:05:10 51°14.085 2°46.491 -999 0.102619 0.643077 -0.896096
2009-01-16 12:06:10 51°14.088 2°46.409 -999 0.102516 0.642457 -0.896096
2009-01-16 12:07:11 51°14.093 2°46.326 -999 0.102516 0.642511 -0.93092
2009-01-16 12:08:10 51°14.103 2°46.247 -999 0.102516 0.642565 -0.93092
2009-01-16 12:09:11 51°14.118 2°46.168 -999 0.102516 0.642619 -0.896096
2009-01-16 12:10:10 51°14.134 2°46.094 -999 0.102516 0.642659 -0.896096
2009-01-16 12:11:11 51°14.157 2°46.017 -999 0.102516 0.642673 -0.896096
2009-01-16 12:12:10 51°14.193 2°45.986 -999 0.102516 0.64274 -0.896096
2009-01-16 12:13:10 51°14.216 2°45.984 -999 0.102516 0.642767 -0.896096
2009-01-16 12:14:10 51°14.23 2°45.983 -999 0.102516 0.642781 -0.93092
2009-01-16 12:15:10 51°14.237 2°45.979 -999 0.102516 0.642794 -0.93092
2009-01-16 12:16:10 51°14.24 2°45.985 -999 0.102516 0.642781 -0.93092
2009-01-16 12:17:10 51°14.229 2°46.086 -999 0.102516 0.642821 -0.896096
2009-01-16 12:18:10 51°14.247 2°46.334 -999 0.102516 0.642848 -0.896096
2009-01-16 12:19:10 51°14.27 2°46.631 -999 0.102516 0.642861 -0.93092
2009-01-16 12:20:10 51°14.29 2°46.929 -999 0.102516 0.642888 -0.93092
2009-01-16 12:21:10 51°14.306 2°47.227 -999 0.102516 0.642915 -0.93092
2009-01-16 12:22:10 51°14.319 2°47.529 -999 0.102516 0.642956 -0.93092
2009-01-16 12:23:10 51°14.331 2°47.831 -999 0.102516 0.643023 -0.93092
2009-01-16 12:24:10 51°14.342 2°48.132 -999 0.102516 0.643104 -0.965744
2009-01-16 12:25:10 51°14.348 2°48.433 -999 0.102516 0.643198 -0.93092
2009-01-16 12:26:10 51°14.358 2°48.732 -999 0.102516 0.643279 -0.93092
2009-01-16 12:27:10 51°14.366 2°49.034 -999 0.102516 0.64336 -0.93092
2009-01-16 12:28:10 51°14.372 2°49.338 -999 0.102413 0.642727 -0.93092
2009-01-16 12:29:10 51°14.38 2°49.641 -999 0.102413 0.642794 -0.93092
2009-01-16 12:30:10 51°14.391 2°49.943 -999 0.102413 0.642848 -0.93092
2009-01-16 12:31:10 51°14.414 2°50.243 -999 0.102413 0.642875 -0.965744
2009-01-16 12:32:10 51°14.44 2°50.542 -999 0.102413 0.642902 -0.93092
2009-01-16 12:33:10 51°14.468 2°50.84 -999 0.102413 0.642929 -1.000568
2009-01-16 12:34:10 51°14.5 2°51.138 -999 0.102413 0.64297 -0.965744
2009-01-16 12:35:10 51°14.537 2°51.433 -999 0.102413 0.64301 -0.965744
2009-01-16 12:36:10 51°14.569 2°51.731 -999 0.102413 0.643051 -0.965744
2009-01-16 12:37:10 51°14.602 2°52.029 -999 0.102413 0.643118 -0.965744
2009-01-16 12:38:10 51°14.627 2°52.332 -999 0.102413 0.643186 -0.965744
2009-01-16 12:39:10 51°14.649 2°52.606 -999 0.102413 0.64328 -0.965744
2009-01-16 12:40:10 51°14.668 2°52.79 -999 0.102413 0.643388 -0.965744
2009-01-16 12:41:10 51°14.678 2°52.937 -999 0.102413 0.64351 -1.000568
2009-01-16 12:42:10 51°14.685 2°53.062 -999 0.10231 0.64293 -1.000568
2009-01-16 12:43:10 51°14.694 2°53.179 -999 0.10231 0.643011 -1.000568
2009-01-16 12:44:10 51°14.698 2°53.279 -999 0.10231 0.643079 -1.000568
2009-01-16 12:45:10 51°14.701 2°53.373 -999 0.10231 0.643146 -1.000568
2009-01-16 12:46:10 51°14.707 2°53.472 -999 0.10231 0.643187 -1.000568
2009-01-16 12:47:10 51°14.725 2°53.591 -999 0.10231 0.643241 -1.000568
2009-01-16 12:48:10 51°14.696 2°53.766 -999 0.10231 0.643281 -1.000568
2009-01-16 12:49:10 51°14.613 2°54.034 -999 0.10231 0.643322 -1.000568
2009-01-16 12:50:10 51°14.548 2°54.326 -999 0.10231 0.643349 -1.000568
2009-01-16 12:51:10 51°14.499 2°54.623 -999 0.10231 0.643363 -1.000568
2009-01-16 12:52:10 51°14.423 2°54.903 -999 0.10231 0.64339 -0.896096
2009-01-16 12:53:10 51°14.315 2°55.153 -999 0.10231 0.64343 -0.965744
2009-01-16 12:54:11 51°14.213 2°55.327 -999 0.10231 0.643444 -0.965744
2009-01-16 12:56:20 51°14.138 2°55.401 -999 0.10231 0.643498 -1.000568
2009-01-16 12:57:20 51°13.899 2°55.578 -999 0.10231 0.643511 -1.000568
2009-01-16 12:58:20 51°13.814 2°55.642 -999 0.102207 0.642863 -1.000568
2009-01-16 12:59:20 51°13.742 2°55.732 -999 0.102207 0.64289 -1.000568
2009-01-16 13:00:20 51°13.693 2°55.837 -999 0.102207 0.642904 -1.000568
2009-01-16 13:01:20 51°13.674 2°55.918 -999 0.102207 0.642931 -1.000568